Portada
METAR-TAF:

METAR-TAF

Aeropuertos :

Aeropuerto de Bruselas. Zaventem

Bruselas, Bélgica

latitud: 50-54N, longitud: 004-32E, altitud: 55 m

Observación

El informe se hizo hace 44 minutos, a las 11:50 UTC
Viento 5 kt del sureste, variando entre este-sureste y sur
Temperatura 14°C
Humedad 63%
Presión 1024 hPa
Visibilidad 10 km o más
sin nubes por debajo de 1500 m y sin presencia de cumulonimbus.

METAR: EBBR 151150Z 14005KT 110V170 CAVOK 14/07 Q1024 NOSIG

Hora: 13:34 (12:34 UTC)

Pronóstico

El informe se hizo hace 1 hora y 14 minutos, a las 11:20 UTC
Pronóstico válido del 15 a las 12 UTC al 16 a las 18 UTC
Viento 5 kt del sur
Visibilidad 10 km o más
sin nubes por debajo de 1500 m y sin presencia de cumulonimbus.
Probabilidad 40%
del 15 a las 21 UTC al 16 a las 10 UTC
Visibilidad: 2500 m
Cielo nuboso a una altura de 400 ft
neblina

TAF: EBBR 151120Z 1512/1618 17005KT CAVOK PROB40 1521/1610 2500 BR BKN004

Observaciones y pronósticos meteorológicos de más de 4000 aeropuertos (mensajes METAR y TAF).

Los puntos amarillos y rojos representan las estaciones disponibles.

Ponga el ratón en el punto deseado para ver el nombre de la estación.

Haga clic para ver las observaciones y los pronósticos meteorológicos.

Para cambiar el mapa : haga clic en los botones verdes con una cruz de color negro para hacer un zoom, en el botón verde con un guión para alejar o en las flechas verdes para mapas adyacentes.


METAR-TAF: